Dades meteomassalio
Diari Summary for Gener 24, 2017 Units:  Metric    English   Both
« Previous Day
Next Day »
Diari Semanal Mensual Anual Personalitzat
  Maxima: Minima: Mijana:
Temperatura: 11.8 °C 4.6 °C 7.3 °C
Rosada: 2.7 °C -0.4 °C 0.8 °C
Humitat: 75 % 47 % 64 %
Velocitat del vent: 33.3 km/h 0.0 km/h 16.7 km/h
Racha vent: 33.3 km/h - -
Vent:- - West
Pressio: 1024.6 hPa 1021.2 hPa -
Pluja: 0.0 mm    
Historical Graphs
 
 
Tabular Data for Gener 24, 2017
Time Temperature Dew Point Pressure Wind Wind Speed Wind Gust Humidity Rainfall Rate (Hourly) solar Conditions
00:02 6.4 °C 1.3 °C 1021.9 hPa West 13.0 km/h 13.0 km/h 70 % 0.0 mm 0.0 W/m2 RA
00:07 6.3 °C 1.4 °C 1021.9 hPa West 18.5 km/h 18.5 km/h 71 % 0.0 mm 0.0 W/m2 CLR
00:12 6.3 °C 1.3 °C 1021.9 hPa West 17.7 km/h 17.7 km/h 70 % 0.0 mm 0.0 W/m2 CLR
00:17 6.3 °C 1.4 °C 1021.9 hPa WSW 18.5 km/h 18.5 km/h 71 % 0.0 mm 0.0 W/m2 CLR
00:22 6.3 °C 1.4 °C 1021.9 hPa WSW 11.1 km/h 11.1 km/h 71 % 0.0 mm 0.0 W/m2 CLR
00:27 6.3 °C 1.4 °C 1021.9 hPa WSW 13.0 km/h 13.0 km/h 71 % 0.0 mm 0.0 W/m2 CLR
00:32 6.3 °C 1.4 °C 1021.9 hPa WSW 14.8 km/h 14.8 km/h 71 % 0.0 mm 0.0 W/m2 CLR
00:37 6.2 °C 1.3 °C 1021.9 hPa West 22.2 km/h 22.2 km/h 71 % 0.0 mm 0.0 W/m2 CLR
00:42 6.2 °C 1.3 °C 1021.9 hPa WSW 14.5 km/h 14.5 km/h 71 % 0.0 mm 0.0 W/m2 CLR
00:47 6.2 °C 1.3 °C 1022.2 hPa WSW 9.3 km/h 9.3 km/h 71 % 0.0 mm 0.0 W/m2 CLR
00:52 6.2 °C 1.3 °C 1022.2 hPa West 11.1 km/h 11.1 km/h 71 % 0.0 mm 0.0 W/m2 CLR
00:57 6.1 °C 1.4 °C 1021.9 hPa WSW 7.4 km/h 7.4 km/h 72 % 0.0 mm 0.0 W/m2 CLR
01:02 6.1 °C 1.4 °C 1021.9 hPa West 14.8 km/h 14.8 km/h 72 % 0.0 mm 0.0 W/m2 CLR
01:07 6.0 °C 1.3 °C 1021.9 hPa WSW 18.5 km/h 18.5 km/h 72 % 0.0 mm 0.0 W/m2 CLR
01:12 6.0 °C 1.3 °C 1021.9 hPa WSW 20.4 km/h 20.4 km/h 72 % 0.0 mm 0.0 W/m2 CLR
01:17 5.9 °C 1.3 °C 1021.9 hPa West 16.7 km/h 16.7 km/h 72 % 0.0 mm 0.0 W/m2 CLR
01:22 5.9 °C 1.4 °C 1021.9 hPa West 9.3 km/h 9.3 km/h 73 % 0.0 mm 0.0 W/m2 CLR
01:27 5.8 °C 1.4 °C 1021.9 hPa West 14.8 km/h 14.8 km/h 73 % 0.0 mm 0.0 W/m2 CLR
01:32 5.8 °C 1.3 °C 1021.9 hPa West 9.3 km/h 9.3 km/h 73 % 0.0 mm 0.0 W/m2 CLR
01:37 5.7 °C 1.2 °C 1021.9 hPa WSW 7.4 km/h 7.4 km/h 73 % 0.0 mm 0.0 W/m2 CLR
01:42 5.6 °C 1.2 °C 1021.9 hPa West 16.7 km/h 16.7 km/h 73 % 0.0 mm 0.0 W/m2 CLR
01:47 5.6 °C 1.2 °C 1021.6 hPa West 18.5 km/h 18.5 km/h 73 % 0.0 mm 0.0 W/m2 CLR
01:52 5.6 °C 1.2 °C 1021.6 hPa West 17.7 km/h 17.7 km/h 73 % 0.0 mm 0.0 W/m2 CLR
01:57 5.6 °C 1.1 °C 1021.9 hPa West 18.5 km/h 18.5 km/h 73 % 0.0 mm 0.0 W/m2 CLR
02:02 5.6 °C 1.3 °C 1021.9 hPa West 13.0 km/h 13.0 km/h 74 % 0.0 mm 0.0 W/m2 CLR
02:07 5.5 °C 1.2 °C 1021.6 hPa West 16.7 km/h 16.7 km/h 74 % 0.0 mm 0.0 W/m2 CLR
02:12 5.5 °C 1.2 °C 1021.9 hPa West 14.8 km/h 14.8 km/h 74 % 0.0 mm 0.0 W/m2 CLR
02:17 5.4 °C 1.2 °C 1021.9 hPa WSW 16.7 km/h 16.7 km/h 74 % 0.0 mm 0.0 W/m2 CLR
02:22 5.4 °C 1.2 °C 1021.9 hPa WSW 13.0 km/h 13.0 km/h 74 % 0.0 mm 0.0 W/m2 CLR
02:27 5.4 °C 1.1 °C 1021.9 hPa WSW 11.1 km/h 11.1 km/h 74 % 0.0 mm 0.0 W/m2 CLR
02:32 5.4 °C 1.1 °C 1021.9 hPa WSW 14.8 km/h 14.8 km/h 74 % 0.0 mm 0.0 W/m2 CLR
02:37 5.4 °C 1.1 °C 1021.9 hPa WSW 14.8 km/h 14.8 km/h 74 % 0.0 mm 0.0 W/m2 CLR
02:42 5.3 °C 1.1 °C 1021.6 hPa WSW 9.7 km/h 9.7 km/h 74 % 0.0 mm 0.0 W/m2 CLR
02:47 5.2 °C 0.9 °C 1021.6 hPa WSW 11.1 km/h 11.1 km/h 74 % 0.0 mm 0.0 W/m2 CLR
02:52 5.2 °C 0.9 °C 1021.6 hPa West 19.3 km/h 19.3 km/h 74 % 0.0 mm 0.0 W/m2 CLR
02:57 5.3 °C 1.0 °C 1021.6 hPa West 19.3 km/h 19.3 km/h 74 % 0.0 mm 0.0 W/m2 CLR
03:02 5.3 °C 0.9 °C 1021.6 hPa West 18.5 km/h 18.5 km/h 73 % 0.0 mm 0.0 W/m2 CLR
03:07 5.3 °C 0.8 °C 1021.6 hPa WSW 11.1 km/h 11.1 km/h 73 % 0.0 mm 0.0 W/m2 CLR
03:12 5.2 °C 0.9 °C 1021.6 hPa WSW 13.0 km/h 13.0 km/h 74 % 0.0 mm 0.0 W/m2 CLR
03:17 5.2 °C 0.9 °C 1021.6 hPa West 16.7 km/h 16.7 km/h 74 % 0.0 mm 0.0 W/m2 CLR
03:22 5.2 °C 0.9 °C 1021.6 hPa WSW 18.5 km/h 18.5 km/h 74 % 0.0 mm 0.0 W/m2 CLR
03:27 5.2 °C 0.9 °C 1021.6 hPa WSW 18.5 km/h 18.5 km/h 74 % 0.0 mm 0.0 W/m2 CLR
03:32 5.1 °C 0.8 °C 1021.6 hPa WSW 13.0 km/h 13.0 km/h 74 % 0.0 mm 0.0 W/m2 CLR
03:37 5.1 °C 0.7 °C 1021.6 hPa West 18.5 km/h 18.5 km/h 73 % 0.0 mm 0.0 W/m2 CLR
03:42 5.1 °C 0.8 °C 1021.9 hPa WSW 14.8 km/h 14.8 km/h 74 % 0.0 mm 0.0 W/m2 CLR
03:47 5.1 °C 0.6 °C 1021.9 hPa WSW 12.9 km/h 12.9 km/h 73 % 0.0 mm 0.0 W/m2 CLR
03:52 5.1 °C 0.8 °C 1021.9 hPa WSW 22.2 km/h 22.2 km/h 74 % 0.0 mm 0.0 W/m2 CLR
03:57 5.1 °C 0.7 °C 1021.6 hPa WSW 19.3 km/h 19.3 km/h 73 % 0.0 mm 0.0 W/m2 CLR
04:02 5.1 °C 0.7 °C 1021.9 hPa West 18.5 km/h 18.5 km/h 73 % 0.0 mm 0.0 W/m2 CLR
04:07 5.1 °C 0.7 °C 1021.9 hPa West 18.5 km/h 18.5 km/h 73 % 0.0 mm 0.0 W/m2 CLR
04:12 5.1 °C 0.7 °C 1021.9 hPa West 14.8 km/h 14.8 km/h 73 % 0.0 mm 0.0 W/m2 CLR
04:17 5.1 °C 0.7 °C 1021.9 hPa WSW 13.0 km/h 13.0 km/h 73 % 0.0 mm 0.0 W/m2 CLR
04:22 5.1 °C 0.6 °C 1021.9 hPa WSW 18.5 km/h 18.5 km/h 73 % 0.0 mm 0.0 W/m2 CLR
04:28 5.1 °C 0.6 °C 1021.9 hPa WSW 16.7 km/h 16.7 km/h 73 % 0.0 mm 0.0 W/m2 CLR
04:33 5.1 °C 0.8 °C 1021.9 hPa WSW 9.3 km/h 9.3 km/h 74 % 0.0 mm 0.0 W/m2 CLR
04:38 4.9 °C 0.7 °C 1022.2 hPa WSW 13.0 km/h 13.0 km/h 74 % 0.0 mm 0.0 W/m2 CLR
04:43 4.8 °C 0.6 °C 1022.2 hPa WSW 13.0 km/h 13.0 km/h 74 % 0.0 mm 0.0 W/m2 CLR
04:47 4.8 °C 0.7 °C 1022.2 hPa WSW 13.0 km/h 13.0 km/h 75 % 0.0 mm 0.0 W/m2 CLR
04:53 4.7 °C 0.7 °C 1022.2 hPa WSW 14.8 km/h 14.8 km/h 75 % 0.0 mm 0.0 W/m2 CLR
04:58 4.7 °C 0.6 °C 1022.2 hPa WSW 5.6 km/h 5.6 km/h 75 % 0.0 mm 0.0 W/m2 CLR
05:03 4.7 °C 0.7 °C 1022.2 hPa WSW 7.4 km/h 7.4 km/h 75 % 0.0 mm 0.0 W/m2 CLR
05:08 4.7 °C 0.7 °C 1022.2 hPa WSW 16.7 km/h 16.7 km/h 75 % 0.0 mm 0.0 W/m2 CLR
05:13 4.7 °C 0.7 °C 1022.2 hPa WSW 8.0 km/h 8.0 km/h 75 % 0.0 mm 0.0 W/m2 CLR
05:18 4.7 °C 0.7 °C 1022.2 hPa WSW 11.1 km/h 11.1 km/h 75 % 0.0 mm 0.0 W/m2 CLR
05:23 4.7 °C 0.7 °C 1022.2 hPa SW 9.7 km/h 9.7 km/h 75 % 0.0 mm 0.0 W/m2 CLR
05:28 4.6 °C 0.6 °C 1022.2 hPa SW 14.8 km/h 14.8 km/h 75 % 0.0 mm 0.0 W/m2 CLR
05:33 4.7 °C 0.6 °C 1022.2 hPa WSW 12.9 km/h 12.9 km/h 75 % 0.0 mm 0.0 W/m2 CLR
05:38 4.8 °C 0.6 °C 1022.2 hPa WSW 9.3 km/h 9.3 km/h 74 % 0.0 mm 0.0 W/m2 CLR
05:43 4.8 °C 0.6 °C 1022.2 hPa SW 11.3 km/h 11.3 km/h 74 % 0.0 mm 0.0 W/m2 CLR
05:48 4.8 °C 0.6 °C 1022.2 hPa SW 17.7 km/h 17.7 km/h 74 % 0.0 mm 0.0 W/m2 CLR
05:53 4.9 °C 0.7 °C 1022.2 hPa West 20.4 km/h 20.4 km/h 74 % 0.0 mm 0.0 W/m2 CLR
05:58 5.0 °C 0.7 °C 1022.2 hPa West 17.7 km/h 17.7 km/h 74 % 0.0 mm 0.0 W/m2 CLR
06:03 5.1 °C 0.7 °C 1022.2 hPa West 20.4 km/h 20.4 km/h 73 % 0.0 mm 0.0 W/m2 CLR
06:08 5.1 °C 0.7 °C 1022.2 hPa West 20.4 km/h 20.4 km/h 73 % 0.0 mm 0.0 W/m2 CLR
06:13 5.1 °C 0.7 °C 1022.2 hPa West 14.8 km/h 14.8 km/h 73 % 0.0 mm 0.0 W/m2 CLR
06:18 5.1 °C 0.7 °C 1022.2 hPa West 18.5 km/h 18.5 km/h 73 % 0.0 mm 0.0 W/m2 CLR
06:23 5.1 °C 0.6 °C 1022.2 hPa West 20.4 km/h 20.4 km/h 73 % 0.0 mm 0.0 W/m2 CLR
06:28 5.1 °C 0.6 °C 1022.2 hPa West 9.7 km/h 9.7 km/h 73 % 0.0 mm 0.0 W/m2 CLR
06:33 5.0 °C 0.6 °C 1022.2 hPa WSW 16.7 km/h 16.7 km/h 73 % 0.0 mm 0.0 W/m2 CLR
06:38 5.0 °C 0.6 °C 1022.2 hPa WSW 20.9 km/h 20.9 km/h 73 % 0.0 mm 0.0 W/m2 CLR
06:43 5.0 °C 0.6 °C 1022.2 hPa WSW 20.4 km/h 20.4 km/h 73 % 0.0 mm 0.0 W/m2 CLR
06:48 4.9 °C 0.5 °C 1022.2 hPa Calm     73 % 0.0 mm 0.0 W/m2 CLR
06:53 4.9 °C 0.4 °C 1022.2 hPa West 5.6 km/h 5.6 km/h 73 % 0.0 mm 0.0 W/m2 CLR
06:58 4.8 °C 0.3 °C 1022.2 hPa WSW 7.4 km/h 7.4 km/h 73 % 0.0 mm 0.0 W/m2 CLR
07:03 4.7 °C 0.3 °C 1022.2 hPa WSW 7.4 km/h 7.4 km/h 73 % 0.0 mm 0.0 W/m2 CLR
07:08 4.7 °C 0.3 °C 1022.6 hPa SW 7.4 km/h 7.4 km/h 73 % 0.0 mm 0.0 W/m2 CLR
07:13 4.7 °C 0.4 °C 1022.2 hPa Calm     74 % 0.0 mm 0.0 W/m2 CLR
07:18 4.6 °C 0.3 °C 1022.2 hPa Calm     74 % 0.0 mm 0.0 W/m2 CLR
07:23 4.6 °C 0.3 °C 1022.6 hPa WSW 8.0 km/h 8.0 km/h 74 % 0.0 mm 0.0 W/m2 CLR
07:28 4.6 °C 0.4 °C 1022.6 hPa WSW 5.6 km/h 5.6 km/h 74 % 0.0 mm 0.0 W/m2 CLR
07:33 4.7 °C 0.2 °C 1022.6 hPa WSW 14.5 km/h 14.5 km/h 73 % 0.0 mm 0.0 W/m2 CLR
07:38 4.8 °C 0.3 °C 1022.6 hPa WSW 18.5 km/h 18.5 km/h 73 % 0.0 mm 0.0 W/m2 CLR
07:43 4.8 °C 0.4 °C 1022.6 hPa WSW 9.7 km/h 9.7 km/h 73 % 0.0 mm 0.0 W/m2 CLR
07:48 4.9 °C 0.3 °C 1022.9 hPa WSW 11.1 km/h 11.1 km/h 72 % 0.0 mm 0.0 W/m2 CLR
07:53 4.8 °C 0.2 °C 1022.9 hPa West 12.9 km/h 12.9 km/h 72 % 0.0 mm 0.0 W/m2 CLR
07:58 4.8 °C 0.2 °C 1022.9 hPa West 5.6 km/h 5.6 km/h 72 % 0.0 mm 0.0 W/m2 CLR
08:03 4.8 °C 0.2 °C 1022.9 hPa WSW 20.4 km/h 20.4 km/h 72 % 0.0 mm 0.0 W/m2 CLR
08:08 4.9 °C 0.3 °C 1022.9 hPa West 20.4 km/h 20.4 km/h 72 % 0.0 mm 0.0 W/m2 CLR
08:13 5.1 °C 0.2 °C 1022.9 hPa West 18.5 km/h 18.5 km/h 71 % 0.0 mm 0.0 W/m2 CLR
08:18 4.9 °C 0.1 °C 1022.9 hPa WSW 13.0 km/h 13.0 km/h 71 % 0.0 mm 0.0 W/m2 OVC
08:23 5.0 °C 0.2 °C 1022.9 hPa WSW 11.3 km/h 11.3 km/h 71 % 0.0 mm 0.0 W/m2 OVC
08:28 4.9 °C 0.1 °C 1022.9 hPa WSW 14.8 km/h 14.8 km/h 71 % 0.0 mm 5.0 W/m2 OVC
08:33 4.8 °C 0.0 °C 1022.9 hPa WSW 17.7 km/h 17.7 km/h 71 % 0.0 mm 9.0 W/m2 OVC
08:38 4.9 °C 0.1 °C 1022.9 hPa West 11.1 km/h 11.1 km/h 71 % 0.0 mm 12.0 W/m2 BKN
08:43 5.0 °C 0.0 °C 1022.9 hPa WSW 16.7 km/h 16.7 km/h 70 % 0.0 mm 18.0 W/m2 BKN
08:48 5.1 °C -0.1 °C 1023.2 hPa West 13.0 km/h 13.0 km/h 69 % 0.0 mm 26.0 W/m2 BKN
08:53 5.1 °C -0.1 °C 1023.2 hPa West 20.4 km/h 20.4 km/h 69 % 0.0 mm 33.0 W/m2 BKN
08:58 5.2 °C -0.1 °C 1023.2 hPa WSW 13.0 km/h 13.0 km/h 69 % 0.0 mm 37.0 W/m2 BKN
09:03 5.3 °C -0.2 °C 1023.6 hPa WSW 14.8 km/h 14.8 km/h 68 % 0.0 mm 40.0 W/m2 BKN
09:08 5.3 °C -0.1 °C 1023.2 hPa WSW 24.1 km/h 24.1 km/h 68 % 0.0 mm 47.0 W/m2 BKN
09:13 5.4 °C -0.3 °C 1023.2 hPa WSW 16.7 km/h 16.7 km/h 67 % 0.0 mm 54.0 W/m2 BKN
09:18 5.4 °C -0.2 °C 1023.2 hPa WSW 16.7 km/h 16.7 km/h 67 % 0.0 mm 62.0 W/m2 BKN
09:23 5.6 °C -0.1 °C 1023.2 hPa West 25.9 km/h 25.9 km/h 67 % 0.0 mm 70.0 W/m2 BKN
09:28 5.6 °C -0.1 °C 1023.6 hPa West 16.7 km/h 16.7 km/h 67 % 0.0 mm 79.0 W/m2 BKN
09:33 5.7 °C 0.0 °C 1023.6 hPa West 20.4 km/h 20.4 km/h 67 % 0.0 mm 77.0 W/m2 BKN
09:38 5.7 °C 0.1 °C 1023.6 hPa West 18.5 km/h 18.5 km/h 67 % 0.0 mm 91.0 W/m2 BKN
09:43 5.9 °C 0.0 °C 1023.6 hPa West 29.6 km/h 29.6 km/h 66 % 0.0 mm 130.0 W/m2 BKN
09:48 6.1 °C 0.2 °C 1023.6 hPa West 24.1 km/h 24.1 km/h 66 % 0.0 mm 134.0 W/m2 BKN
09:53 6.1 °C 0.2 °C 1023.6 hPa West 22.5 km/h 22.5 km/h 66 % 0.0 mm 114.0 W/m2 BKN
09:58 6.1 °C 0.2 °C 1023.6 hPa WNW 27.8 km/h 27.8 km/h 66 % 0.0 mm 206.0 W/m2 BKN
10:03 6.3 °C 0.2 °C 1023.6 hPa West 31.5 km/h 31.5 km/h 65 % 0.0 mm 183.0 W/m2 BKN
10:08 6.5 °C 0.4 °C 1023.6 hPa WNW 24.1 km/h 24.1 km/h 65 % 0.0 mm 251.0 W/m2 SCT
10:13 6.6 °C 0.5 °C 1023.9 hPa West 29.6 km/h 29.6 km/h 65 % 0.0 mm 248.0 W/m2 SCT
10:18 6.7 °C 0.8 °C 1023.9 hPa West 17.7 km/h 17.7 km/h 66 % 0.0 mm 176.0 W/m2 SCT
10:23 6.6 °C 0.5 °C 1023.9 hPa West 33.3 km/h 33.3 km/h 65 % 0.0 mm 176.0 W/m2 BKN
10:28 6.6 °C 0.4 °C 1023.9 hPa WNW 19.3 km/h 19.3 km/h 65 % 0.0 mm 179.0 W/m2 BKN
10:33 6.6 °C 0.4 °C 1023.9 hPa WNW 20.9 km/h 20.9 km/h 65 % 0.0 mm 156.0 W/m2 BKN
10:39 6.6 °C 0.4 °C 1023.9 hPa West 31.5 km/h 31.5 km/h 65 % 0.0 mm 185.0 W/m2 BKN
10:44 6.6 °C 0.5 °C 1023.9 hPa West 31.5 km/h 31.5 km/h 65 % 0.0 mm 174.0 W/m2 BKN
10:49 6.7 °C 0.8 °C 1023.9 hPa West 27.8 km/h 27.8 km/h 66 % 0.0 mm 229.0 W/m2 BKN
10:54 6.8 °C 0.9 °C 1024.3 hPa West 29.0 km/h 29.0 km/h 66 % 0.0 mm 202.0 W/m2 BKN
10:59 6.9 °C 0.9 °C 1024.3 hPa West 25.9 km/h 25.9 km/h 66 % 0.0 mm 229.0 W/m2 BKN
11:04 6.9 °C 0.8 °C 1024.3 hPa West 25.9 km/h 25.9 km/h 65 % 0.0 mm 185.0 W/m2 BKN
11:09 6.9 °C 0.8 °C 1024.3 hPa WNW 31.5 km/h 31.5 km/h 65 % 0.0 mm 156.0 W/m2 BKN
11:14 6.9 °C 0.6 °C 1024.3 hPa WNW 20.4 km/h 20.4 km/h 64 % 0.0 mm 204.0 W/m2 BKN
11:19 7.1 °C 0.9 °C 1024.3 hPa WNW 29.6 km/h 29.6 km/h 65 % 0.0 mm 192.0 W/m2 BKN
11:24 7.1 °C 0.9 °C 1024.6 hPa West 22.5 km/h 22.5 km/h 65 % 0.0 mm 114.0 W/m2 BKN
11:29 7.1 °C 1.1 °C 1024.3 hPa West 25.9 km/h 25.9 km/h 66 % 0.0 mm 141.0 W/m2 BKN
11:34 7.1 °C 0.9 °C 1024.3 hPa WNW 29.0 km/h 29.0 km/h 65 % 0.0 mm 264.0 W/m2 BKN
11:39 7.4 °C 1.4 °C 1024.3 hPa WNW 20.4 km/h 20.4 km/h 66 % 0.0 mm 353.0 W/m2 BKN
11:44 7.7 °C 1.3 °C 1024.3 hPa West 29.6 km/h 29.6 km/h 64 % 0.0 mm 431.0 W/m2 SCT
11:49 7.9 °C 1.3 °C 1024.3 hPa West 25.9 km/h 25.9 km/h 63 % 0.0 mm 185.0 W/m2 SCT
11:54 7.9 °C 1.5 °C 1024.3 hPa WNW 22.2 km/h 22.2 km/h 64 % 0.0 mm 214.0 W/m2 BKN
11:59 7.9 °C 1.3 °C 1024.3 hPa WNW 30.6 km/h 30.6 km/h 63 % 0.0 mm 156.0 W/m2 BKN
12:04 7.9 °C 1.1 °C 1024.3 hPa West 24.1 km/h 24.1 km/h 62 % 0.0 mm 155.0 W/m2 BKN
12:09 8.1 °C 1.2 °C 1024.3 hPa WNW 25.9 km/h 25.9 km/h 62 % 0.0 mm 471.0 W/m2 BKN
12:14 8.3 °C 1.2 °C 1024.3 hPa West 20.4 km/h 20.9 km/h 61 % 0.0 mm 236.0 W/m2 SCT
12:19 8.5 °C 1.2 °C 1023.9 hPa West 20.4 km/h 20.4 km/h 60 % 0.0 mm 383.0 W/m2 SCT
12:24 8.6 °C 1.1 °C 1023.9 hPa West 27.8 km/h 27.8 km/h 59 % 0.0 mm 292.0 W/m2 SCT
12:29 8.7 °C 1.3 °C 1023.9 hPa WNW 22.5 km/h 22.5 km/h 60 % 0.0 mm 299.0 W/m2 SCT
12:34 8.8 °C 1.5 °C 1023.9 hPa WNW 18.5 km/h 18.5 km/h 60 % 0.0 mm 494.0 W/m2 SCT
12:39 9.2 °C 1.6 °C 1023.6 hPa WNW 24.1 km/h 24.1 km/h 59 % 0.0 mm 424.0 W/m2 FEW
12:45 9.3 °C 2.1 °C 1023.6 hPa WNW 25.9 km/h 25.9 km/h 61 % 0.0 mm 301.0 W/m2 FEW
12:50 9.3 °C 1.7 °C 1023.2 hPa WNW 25.9 km/h 25.9 km/h 59 % 0.0 mm 243.0 W/m2 SCT
12:55 9.2 °C 1.4 °C 1023.2 hPa WNW 29.0 km/h 29.0 km/h 58 % 0.0 mm 269.0 W/m2 BKN
13:00 9.3 °C 1.4 °C 1023.2 hPa West 25.9 km/h 25.9 km/h 58 % 0.0 mm 359.0 W/m2 SCT
13:05 9.3 °C 1.5 °C 1023.2 hPa West 24.1 km/h 24.1 km/h 58 % 0.0 mm 334.0 W/m2 SCT
13:10 9.3 °C 1.2 °C 1023.2 hPa WNW 27.8 km/h 27.8 km/h 57 % 0.0 mm 272.0 W/m2 SCT
13:15 9.5 °C 1.6 °C 1022.9 hPa WNW 18.5 km/h 18.5 km/h 58 % 0.0 mm 350.0 W/m2 SCT
13:20 9.6 °C 1.0 °C 1022.9 hPa WNW 33.3 km/h 33.3 km/h 55 % 0.0 mm 381.0 W/m2 SCT
13:25 9.8 °C 1.7 °C 1022.9 hPa WNW 16.7 km/h 16.7 km/h 57 % 0.0 mm 304.0 W/m2 SCT
13:30 9.8 °C 2.2 °C 1022.9 hPa NW 22.5 km/h 22.5 km/h 59 % 0.0 mm 390.0 W/m2 SCT
13:35 9.8 °C 1.4 °C 1022.9 hPa NW 24.1 km/h 24.1 km/h 56 % 0.0 mm 336.0 W/m2 SCT
13:40 10.0 °C 1.4 °C 1022.6 hPa NW 27.8 km/h 27.8 km/h 55 % 0.0 mm 415.0 W/m2 FEW
13:45 10.1 °C 1.9 °C 1022.6 hPa WNW 25.9 km/h 25.9 km/h 57 % 0.0 mm 406.0 W/m2 FEW
13:50 10.1 °C 1.2 °C 1022.6 hPa WNW 29.6 km/h 29.6 km/h 54 % 0.0 mm 339.0 W/m2 FEW
13:55 10.1 °C 1.7 °C 1022.6 hPa WNW 31.5 km/h 31.5 km/h 56 % 0.0 mm 404.0 W/m2 FEW
14:00 10.1 °C 1.9 °C 1022.6 hPa WNW 22.5 km/h 22.5 km/h 57 % 0.0 mm 476.0 W/m2 FEW
14:05 10.3 °C 1.6 °C 1022.2 hPa WNW 24.1 km/h 24.1 km/h 55 % 0.0 mm 441.0 W/m2 FEW
14:10 10.3 °C 1.7 °C 1022.2 hPa WNW 24.1 km/h 25.4 km/h 55 % 0.0 mm 334.0 W/m2 CLR
14:15 10.3 °C 1.6 °C 1022.2 hPa WNW 27.8 km/h 27.8 km/h 55 % 0.0 mm 301.0 W/m2 FEW
14:20 10.3 °C 1.4 °C 1022.2 hPa WNW 18.5 km/h 18.5 km/h 54 % 0.0 mm 323.0 W/m2 FEW
14:25 10.4 °C 1.7 °C 1022.2 hPa WNW 19.3 km/h 19.3 km/h 55 % 0.0 mm 399.0 W/m2 FEW
14:30 10.6 °C 1.7 °C 1021.9 hPa WNW 22.2 km/h 22.2 km/h 54 % 0.0 mm 464.0 W/m2 CLR
14:35 10.9 °C 1.7 °C 1021.9 hPa WNW 24.1 km/h 24.1 km/h 53 % 0.0 mm 454.0 W/m2 CLR
14:40 10.9 °C 2.0 °C 1021.9 hPa WNW 24.1 km/h 24.1 km/h 54 % 0.0 mm 441.0 W/m2 CLR
14:45 11.1 °C 2.7 °C 1021.9 hPa WNW 24.1 km/h 24.1 km/h 56 % 0.0 mm 436.0 W/m2 CLR
14:50 11.1 °C 2.2 °C 1021.6 hPa WNW 31.5 km/h 31.5 km/h 54 % 0.0 mm 425.0 W/m2 CLR
14:55 11.1 °C 1.6 °C 1021.6 hPa WNW 25.7 km/h 25.7 km/h 52 % 0.0 mm 417.0 W/m2 CLR
15:00 11.2 °C 1.4 °C 1021.6 hPa WNW 24.1 km/h 24.1 km/h 51 % 0.0 mm 408.0 W/m2 CLR
15:05 11.2 °C 2.0 °C 1021.6 hPa WNW 31.5 km/h 31.5 km/h 53 % 0.0 mm 396.0 W/m2 CLR
15:10 11.2 °C 1.4 °C 1021.6 hPa WNW 20.4 km/h 20.4 km/h 51 % 0.0 mm 388.0 W/m2 CLR
15:15 11.4 °C 1.6 °C 1021.6 hPa WNW 22.2 km/h 22.2 km/h 51 % 0.0 mm 381.0 W/m2 CLR
15:20 11.4 °C 1.9 °C 1021.6 hPa WNW 24.1 km/h 24.1 km/h 52 % 0.0 mm 371.0 W/m2 CLR
15:25 11.4 °C 1.7 °C 1021.6 hPa WNW 27.8 km/h 27.8 km/h 51 % 0.0 mm 362.0 W/m2 CLR
15:30 11.6 °C 1.8 °C 1021.6 hPa WNW 22.2 km/h 22.2 km/h 51 % 0.0 mm 352.0 W/m2 CLR
15:35 11.6 °C 1.5 °C 1021.6 hPa WNW 24.1 km/h 24.1 km/h 50 % 0.0 mm 341.0 W/m2 CLR
15:40 11.6 °C 1.5 °C 1021.6 hPa WNW 27.8 km/h 27.8 km/h 50 % 0.0 mm 330.0 W/m2 CLR
15:45 11.5 °C 1.7 °C 1021.6 hPa WNW 20.4 km/h 20.4 km/h 51 % 0.0 mm 322.0 W/m2 CLR
15:50 11.7 °C 1.6 °C 1021.6 hPa WNW 18.5 km/h 18.5 km/h 50 % 0.0 mm 309.0 W/m2 CLR
15:55 11.7 °C 2.2 °C 1021.6 hPa WNW 16.7 km/h 16.7 km/h 52 % 0.0 mm 301.0 W/m2 CLR
16:00 11.7 °C 1.6 °C 1021.6 hPa WNW 22.2 km/h 22.2 km/h 50 % 0.0 mm 287.0 W/m2 CLR
16:05 11.7 °C 1.0 °C 1021.6 hPa WNW 22.2 km/h 22.2 km/h 48 % 0.0 mm 274.0 W/m2 CLR
16:10 11.7 °C 2.1 °C 1021.6 hPa WNW 20.4 km/h 20.4 km/h 52 % 0.0 mm 262.0 W/m2 CLR
16:15 11.7 °C 1.6 °C 1021.6 hPa WNW 20.9 km/h 20.9 km/h 50 % 0.0 mm 250.0 W/m2 CLR
16:20 11.7 °C 1.3 °C 1021.6 hPa WNW 20.4 km/h 20.4 km/h 49 % 0.0 mm 234.0 W/m2 CLR
16:26 11.7 °C 1.9 °C 1021.2 hPa WNW 16.7 km/h 16.7 km/h 51 % 0.0 mm 218.0 W/m2 CLR
16:30 11.7 °C 1.3 °C 1021.2 hPa WNW 16.7 km/h 16.7 km/h 49 % 0.0 mm 204.0 W/m2 CLR
16:36 11.8 °C 1.9 °C 1021.6 hPa WNW 18.5 km/h 18.5 km/h 51 % 0.0 mm 188.0 W/m2 CLR
16:41 11.7 °C 1.3 °C 1021.6 hPa WNW 18.5 km/h 18.5 km/h 49 % 0.0 mm 174.0 W/m2 CLR
16:46 11.7 °C 0.8 °C 1021.6 hPa WNW 24.1 km/h 24.1 km/h 47 % 0.0 mm 158.0 W/m2 CLR
16:51 11.7 °C 0.7 °C 1021.6 hPa WNW 22.2 km/h 22.2 km/h 47 % 0.0 mm 142.0 W/m2 CLR
16:56 11.5 °C 0.6 °C 1021.6 hPa WNW 24.1 km/h 24.1 km/h 47 % 0.0 mm 128.0 W/m2 SCT
17:01 11.5 °C 0.8 °C 1021.6 hPa WNW 20.4 km/h 20.4 km/h 48 % 0.0 mm 113.0 W/m2 BKN
17:06 11.4 °C 0.5 °C 1021.6 hPa WNW 16.7 km/h 16.7 km/h 47 % 0.0 mm 98.0 W/m2 OVC
17:11 11.3 °C 0.9 °C 1021.6 hPa WNW 19.3 km/h 19.3 km/h 49 % 0.0 mm 83.0 W/m2 OVC
17:16 11.2 °C 0.8 °C 1021.6 hPa WNW 18.5 km/h 18.5 km/h 49 % 0.0 mm 67.0 W/m2 OVC
17:21 11.1 °C 1.0 °C 1021.6 hPa WNW 13.0 km/h 13.0 km/h 50 % 0.0 mm 58.0 W/m2 OVC
17:26 10.9 °C 0.6 °C 1021.6 hPa WNW 16.7 km/h 16.7 km/h 49 % 0.0 mm 49.0 W/m2 OVC
17:31 10.8 °C 0.8 °C 1021.6 hPa WNW 18.5 km/h 18.5 km/h 50 % 0.0 mm 35.0 W/m2 OVC
17:36 10.6 °C 0.9 °C 1021.6 hPa WNW 16.7 km/h 16.7 km/h 51 % 0.0 mm 26.0 W/m2 OVC
17:41 10.5 °C 0.8 °C 1021.6 hPa WNW 13.0 km/h 13.0 km/h 51 % 0.0 mm 19.0 W/m2 OVC
17:46 10.4 °C 0.7 °C 1021.6 hPa WNW 13.0 km/h 13.0 km/h 51 % 0.0 mm 14.0 W/m2 OVC
17:51 10.2 °C 0.8 °C 1021.6 hPa WNW 11.1 km/h 11.1 km/h 52 % 0.0 mm 12.0 W/m2 OVC
17:56 10.0 °C 0.8 °C 1021.6 hPa West 11.1 km/h 11.1 km/h 53 % 0.0 mm 11.0 W/m2 OVC
18:01 9.8 °C 0.7 °C 1021.9 hPa Calm     53 % 0.0 mm 7.0 W/m2 OVC
18:06 9.7 °C 0.6 °C 1021.9 hPa Calm     53 % 0.0 mm 5.0 W/m2 OVC
18:11 9.6 °C 0.5 °C 1021.9 hPa Calm     53 % 0.0 mm 0.0 W/m2 CLR
18:16 9.4 °C 0.8 °C 1021.9 hPa Calm     55 % 0.0 mm 0.0 W/m2 CLR
18:21 9.2 °C 1.1 °C 1021.9 hPa Calm     57 % 0.0 mm 0.0 W/m2 CLR
18:26 8.9 °C 0.6 °C 1021.9 hPa Calm     56 % 0.0 mm 0.0 W/m2 CLR
18:31 8.7 °C 0.7 °C 1022.2 hPa Calm     57 % 0.0 mm 0.0 W/m2 CLR
18:36 8.6 °C 0.6 °C 1022.2 hPa Calm     57 % 0.0 mm 0.0 W/m2 CLR
18:41 8.3 °C 0.6 °C 1022.2 hPa Calm     58 % 0.0 mm 0.0 W/m2 CLR
18:46 8.0 °C 0.4 °C 1022.2 hPa Calm     59 % 0.0 mm 0.0 W/m2 CLR
18:51 7.9 °C 0.4 °C 1022.2 hPa WSW 1.9 km/h   59 % 0.0 mm 0.0 W/m2 CLR
18:56 7.9 °C 0.4 °C 1022.2 hPa WSW 9.3 km/h 9.3 km/h 59 % 0.0 mm 0.0 W/m2 CLR
19:01 7.9 °C 0.1 °C 1022.2 hPa WSW 11.1 km/h 11.1 km/h 58 % 0.0 mm 0.0 W/m2 CLR
19:06 8.2 °C 0.2 °C 1022.2 hPa West 13.0 km/h 13.0 km/h 57 % 0.0 mm 0.0 W/m2 CLR
19:11 8.6 °C 0.1 °C 1022.2 hPa West 16.7 km/h 16.7 km/h 55 % 0.0 mm 0.0 W/m2 CLR
19:16 8.7 °C 0.1 °C 1022.2 hPa West 18.5 km/h 18.5 km/h 55 % 0.0 mm 0.0 W/m2 CLR
19:21 8.7 °C 0.1 °C 1022.6 hPa West 14.8 km/h 14.8 km/h 55 % 0.0 mm 0.0 W/m2 CLR
19:26 8.4 °C 0.1 °C 1022.6 hPa WSW 8.0 km/h 8.0 km/h 56 % 0.0 mm 0.0 W/m2 CLR
19:31 7.9 °C 0.1 °C 1022.6 hPa WSW 13.0 km/h 13.0 km/h 58 % 0.0 mm 0.0 W/m2 CLR
19:36 7.7 °C -0.1 °C 1022.6 hPa WSW 14.8 km/h 14.8 km/h 58 % 0.0 mm 0.0 W/m2 CLR
19:41 7.6 °C -0.1 °C 1022.6 hPa WSW 9.7 km/h 9.7 km/h 58 % 0.0 mm 0.0 W/m2 CLR
19:46 7.7 °C -0.1 °C 1022.6 hPa WSW 27.4 km/h 27.4 km/h 58 % 0.0 mm 0.0 W/m2 CLR
19:51 8.0 °C -0.3 °C 1022.9 hPa WSW 24.1 km/h 24.1 km/h 56 % 0.0 mm 0.0 W/m2 CLR
19:56 8.1 °C -0.2 °C 1022.9 hPa WSW 18.5 km/h 18.5 km/h 56 % 0.0 mm 0.0 W/m2 CLR
20:01 8.3 °C -0.2 °C 1022.9 hPa West 20.4 km/h 20.4 km/h 55 % 0.0 mm 0.0 W/m2 CLR
20:06 8.4 °C -0.2 °C 1022.9 hPa West 18.5 km/h 18.5 km/h 55 % 0.0 mm 0.0 W/m2 CLR
20:11 8.3 °C -0.2 °C 1022.9 hPa West 5.6 km/h 5.6 km/h 55 % 0.0 mm 0.0 W/m2 CLR
20:16 8.1 °C -0.2 °C 1022.9 hPa WSW 18.5 km/h 18.5 km/h 56 % 0.0 mm 0.0 W/m2 CLR
20:21 8.2 °C -0.1 °C 1022.9 hPa West 9.7 km/h 9.7 km/h 56 % 0.0 mm 0.0 W/m2 CLR
20:26 8.2 °C -0.3 °C 1023.2 hPa West 16.7 km/h 16.7 km/h 55 % 0.0 mm 0.0 W/m2 CLR
20:31 8.1 °C -0.2 °C 1023.2 hPa WSW 11.1 km/h 11.1 km/h 56 % 0.0 mm 0.0 W/m2 CLR
20:36 7.8 °C -0.2 °C 1023.2 hPa SW 11.3 km/h 11.3 km/h 57 % 0.0 mm 0.0 W/m2 CLR
20:41 7.7 °C -0.3 °C 1023.2 hPa SSW 11.1 km/h 11.1 km/h 57 % 0.0 mm 0.0 W/m2 CLR
20:46 7.7 °C -0.3 °C 1023.2 hPa SW 18.5 km/h 18.5 km/h 57 % 0.0 mm 0.0 W/m2 CLR
20:51 7.7 °C -0.3 °C 1023.2 hPa SW 16.7 km/h 16.7 km/h 57 % 0.0 mm 0.0 W/m2 CLR
20:56 7.6 °C -0.4 °C 1023.2 hPa SW 14.8 km/h 14.8 km/h 57 % 0.0 mm 0.0 W/m2 CLR
21:01 7.6 °C -0.2 °C 1023.2 hPa SW 9.7 km/h 9.7 km/h 58 % 0.0 mm 0.0 W/m2 CLR
21:06 7.4 °C -0.3 °C 1023.2 hPa SW 16.7 km/h 16.7 km/h 58 % 0.0 mm 0.0 W/m2 CLR
21:11 7.4 °C -0.1 °C 1023.6 hPa WSW 9.3 km/h 9.3 km/h 59 % 0.0 mm 0.0 W/m2 CLR
21:16 7.4 °C 0.1 °C 1023.6 hPa WSW 12.9 km/h 12.9 km/h 60 % 0.0 mm 0.0 W/m2 CLR
21:21 7.3 °C 0.1 °C 1023.6 hPa WSW 9.3 km/h 9.3 km/h 60 % 0.0 mm 0.0 W/m2 CLR
21:26 7.1 °C 0.3 °C 1023.6 hPa WSW 13.0 km/h 13.0 km/h 62 % 0.0 mm 0.0 W/m2 CLR
21:31 7.2 °C 0.4 °C 1023.6 hPa WSW 14.8 km/h 14.8 km/h 62 % 0.0 mm 0.0 W/m2 CLR
21:36 7.3 °C 0.5 °C 1023.6 hPa West 24.1 km/h 24.1 km/h 62 % 0.0 mm 0.0 W/m2 CLR
21:42 7.6 °C 0.5 °C 1023.6 hPa West 16.1 km/h 16.1 km/h 61 % 0.0 mm 0.0 W/m2 CLR
21:47 7.6 °C 0.3 °C 1023.6 hPa West 18.5 km/h 18.5 km/h 60 % 0.0 mm 0.0 W/m2 CLR
21:52 7.6 °C 0.5 °C 1023.6 hPa West 16.7 km/h 16.7 km/h 61 % 0.0 mm 0.0 W/m2 CLR
21:57 7.4 °C 0.4 °C 1023.6 hPa West 8.0 km/h 8.0 km/h 61 % 0.0 mm 0.0 W/m2 CLR
22:02 7.3 °C 0.3 °C 1023.6 hPa West 13.0 km/h 13.0 km/h 61 % 0.0 mm 0.0 W/m2 CLR
22:07 7.2 °C 0.4 °C 1023.6 hPa Calm     62 % 0.0 mm 0.0 W/m2 CLR
22:12 7.1 °C 0.3 °C 1023.6 hPa WSW 11.1 km/h 11.1 km/h 62 % 0.0 mm 0.0 W/m2 CLR
22:17 7.1 °C 0.3 °C 1023.6 hPa West 16.7 km/h 16.7 km/h 62 % 0.0 mm 0.0 W/m2 CLR
22:22 7.2 °C 0.4 °C 1023.6 hPa WSW 7.4 km/h 7.4 km/h 62 % 0.0 mm 0.0 W/m2 CLR
22:27 7.0 °C 0.2 °C 1023.6 hPa Calm     62 % 0.0 mm 0.0 W/m2 CLR
22:32 7.0 °C 0.2 °C 1023.6 hPa WSW 5.6 km/h 5.6 km/h 62 % 0.0 mm 0.0 W/m2 CLR
22:37 6.9 °C 0.2 °C 1023.6 hPa Calm     62 % 0.0 mm 0.0 W/m2 CLR
22:42 6.9 °C 0.3 °C 1023.6 hPa SW 14.8 km/h 14.8 km/h 63 % 0.0 mm 0.0 W/m2 CLR
22:47 6.9 °C 0.3 °C 1023.6 hPa Calm     63 % 0.0 mm 0.0 W/m2 CLR
22:52 6.9 °C 0.8 °C 1023.6 hPa WSW 18.5 km/h 18.5 km/h 65 % 0.0 mm 0.0 W/m2 CLR
22:57 6.9 °C 0.6 °C 1023.6 hPa West 20.4 km/h 20.4 km/h 64 % 0.0 mm 0.0 W/m2 CLR
23:02 6.9 °C 0.8 °C 1023.6 hPa West 9.3 km/h 9.3 km/h 65 % 0.0 mm 0.0 W/m2 CLR
23:07 6.8 °C 0.5 °C 1023.6 hPa West 9.7 km/h 9.7 km/h 64 % 0.0 mm 0.0 W/m2 CLR
23:12 6.8 °C 0.5 °C 1023.6 hPa West 6.4 km/h 6.4 km/h 64 % 0.0 mm 0.0 W/m2 CLR
23:17 6.8 °C 0.5 °C 1023.6 hPa West 14.5 km/h 14.5 km/h 64 % 0.0 mm 0.0 W/m2 CLR
23:22 6.7 °C 0.4 °C 1023.6 hPa WSW 13.0 km/h 13.0 km/h 64 % 0.0 mm 0.0 W/m2 CLR
23:27 6.7 °C 0.2 °C 1023.6 hPa WSW 11.1 km/h 11.1 km/h 63 % 0.0 mm 0.0 W/m2 CLR
23:32 6.7 °C 0.1 °C 1023.6 hPa West 14.8 km/h 14.8 km/h 63 % 0.0 mm 0.0 W/m2 CLR
23:37 6.6 °C 0.1 °C 1023.6 hPa West 13.0 km/h 13.0 km/h 63 % 0.0 mm 0.0 W/m2 CLR
23:42 6.6 °C 0.0 °C 1023.2 hPa West 18.5 km/h 18.5 km/h 63 % 0.0 mm 0.0 W/m2 CLR
23:47 6.6 °C 0.1 °C 1023.2 hPa West 18.5 km/h 18.5 km/h 63 % 0.0 mm 0.0 W/m2 CLR
23:52 6.6 °C 0.0 °C 1023.2 hPa West 18.5 km/h 18.5 km/h 63 % 0.0 mm 0.0 W/m2 CLR
23:57 6.4 °C -0.1 °C 1023.2 hPa West 20.4 km/h 20.4 km/h 63 % 0.0 mm 0.0 W/m2 CLR
Lo Temps de Massalio
Compliments of Weather Underground - 1.25 mb